createdAt,value
2018-08-22T00:00:42.933Z,97645.50
2018-08-22T00:03:11.521Z,97646.37
2018-08-22T00:05:40.178Z,97641.66
2018-08-22T00:08:08.947Z,97640.80
2018-08-22T00:10:37.635Z,97643.38
2018-08-22T00:13:06.335Z,97641.67
2018-08-22T00:15:35.020Z,97638.24
2018-08-22T00:18:03.651Z,97642.11
2018-08-22T00:20:32.326Z,97643.89
2018-08-22T00:23:01.003Z,97634.88
2018-08-22T00:25:29.663Z,97343.09
2018-08-22T00:27:58.157Z,97632.25
2018-08-22T00:30:26.907Z,97632.30
2018-08-22T00:32:55.504Z,97630.14
2018-08-22T00:35:24.136Z,97630.96
2018-08-22T00:37:52.812Z,97632.73
2018-08-22T00:40:21.495Z,97630.57
2018-08-22T00:42:50.114Z,97628.44
2018-08-22T00:45:18.631Z,97631.86
2018-08-22T00:47:47.235Z,97630.16
2018-08-22T00:50:15.846Z,97627.56
2018-08-22T00:52:45.559Z,97625.37
2018-08-22T00:55:14.255Z,97628.39
2018-08-22T00:57:42.943Z,97629.73
2018-08-22T01:00:11.535Z,97630.52
2018-08-22T01:02:40.114Z,97632.72
2018-08-22T01:05:08.773Z,97625.37
2018-08-22T01:07:37.414Z,97620.22
2018-08-22T01:10:06.989Z,97624.52
2018-08-22T01:12:35.596Z,97628.39
2018-08-22T01:15:04.202Z,97630.96
2018-08-22T01:17:32.855Z,97632.23
2018-08-22T01:20:01.454Z,97624.05
2018-08-22T01:22:30.095Z,97620.64
2018-08-22T01:24:58.746Z,97624.50
2018-08-22T01:27:27.357Z,97626.20
2018-08-22T01:29:55.927Z,97621.91
2018-08-22T01:32:24.538Z,97621.91
2018-08-22T01:34:53.482Z,97621.91
2018-08-22T01:37:22.051Z,97620.16
2018-08-22T01:39:50.576Z,97615.00
2018-08-22T01:42:19.477Z,97617.58
2018-08-22T01:44:48.078Z,97616.73
2018-08-22T01:47:17.171Z,97621.01
2018-08-22T01:49:45.877Z,97612.41
2018-08-22T01:52:14.728Z,97612.41
2018-08-22T01:54:43.467Z,97612.41
2018-08-22T01:57:12.118Z,97613.28
2018-08-22T01:59:40.908Z,97608.97
2018-08-22T02:02:09.728Z,97610.25
2018-08-22T02:04:38.462Z,97612.83
2018-08-22T02:07:07.038Z,97611.95
2018-08-22T02:09:35.735Z,97609.80
2018-08-22T02:12:04.355Z,97608.50
2018-08-22T02:14:33.118Z,97607.66
2018-08-22T02:17:01.732Z,97607.22
2018-08-22T02:19:30.354Z,97607.22
2018-08-22T02:21:58.924Z,97606.38
2018-08-22T02:24:27.485Z,97606.38
2018-08-22T02:26:56.178Z,97602.92
2018-08-22T02:29:24.737Z,97605.50
2018-08-22T02:31:53.322Z,97599.91
2018-08-22T02:34:22.050Z,97600.76
2018-08-22T02:36:50.653Z,97602.49
2018-08-22T02:39:19.397Z,97601.18
2018-08-22T02:41:47.971Z,97599.02
2018-08-22T02:44:16.471Z,97594.75
2018-08-22T02:46:45.114Z,97601.18
2018-08-22T02:49:13.866Z,97597.73
2018-08-22T02:51:42.417Z,97600.30
2018-08-22T02:54:12.249Z,97607.62
2018-08-22T02:56:40.940Z,97603.30
2018-08-22T02:59:09.560Z,97601.59
2018-08-22T03:01:38.118Z,97597.30
2018-08-22T03:04:06.797Z,97597.73
2018-08-22T03:06:35.428Z,97595.56
2018-08-22T03:09:04.730Z,97590.39
2018-08-22T03:11:33.404Z,97591.27
2018-08-22T03:14:01.955Z,97589.98
2018-08-22T03:16:30.577Z,97309.59
2018-08-22T03:18:59.216Z,97599.86
2018-08-22T03:21:27.827Z,97602.86
2018-08-22T03:23:56.474Z,97599.41
2018-08-22T03:26:25.195Z,97591.25
2018-08-22T03:28:53.742Z,97596.81
2018-08-22T03:31:22.400Z,97594.68
2018-08-22T03:33:51.064Z,97586.49
2018-08-22T03:36:19.706Z,97594.23
2018-08-22T03:38:48.666Z,97589.07
2018-08-22T03:41:17.195Z,97591.21
2018-08-22T03:43:45.707Z,97596.77
2018-08-22T03:46:14.182Z,97592.91
2018-08-22T03:48:42.722Z,97592.06
2018-08-22T03:51:11.224Z,97592.06
2018-08-22T03:53:39.693Z,97586.05
2018-08-22T03:56:08.192Z,97598.04
2018-08-22T03:58:36.677Z,97592.02
2018-08-22T04:01:05.183Z,97590.30
2018-08-22T04:03:33.714Z,97598.48
2018-08-22T04:06:02.218Z,97597.17
2018-08-22T04:08:30.739Z,97601.03
2018-08-22T04:10:59.237Z,97601.03
2018-08-22T04:13:27.698Z,97600.59
2018-08-22T04:15:56.318Z,97601.47
2018-08-22T04:18:24.842Z,97607.47
2018-08-22T04:20:53.386Z,97601.86
2018-08-22T04:23:21.910Z,97604.44
2018-08-22T04:25:50.398Z,97612.16
2018-08-22T04:28:18.904Z,97616.02
2018-08-22T04:30:47.509Z,97617.28
2018-08-22T04:33:16.003Z,97622.90
2018-08-22T04:35:44.496Z,97615.59
2018-08-22T04:38:12.958Z,97625.88
2018-08-22T04:40:41.446Z,97625.91
2018-08-22T04:43:09.925Z,97623.31
2018-08-22T04:45:38.467Z,97624.19
2018-08-22T04:48:06.970Z,97628.45
2018-08-22T04:50:35.455Z,97632.73
2018-08-22T04:53:04.603Z,97632.32
2018-08-22T04:55:33.090Z,97628.03
2018-08-22T04:58:01.690Z,97634.02
2018-08-22T05:00:30.795Z,97631.89
2018-08-22T05:02:59.313Z,97634.46
2018-08-22T05:05:27.812Z,97636.16
2018-08-22T05:07:57.537Z,97632.66
2018-08-22T05:10:26.039Z,97637.20
2018-08-22T05:12:54.587Z,97631.25
2018-08-22T05:15:23.311Z,97637.17
2018-08-22T05:17:51.915Z,97634.52
2018-08-22T05:20:20.393Z,97643.88
2018-08-22T05:22:48.965Z,97638.98
2018-08-22T05:25:17.485Z,97644.56
2018-08-22T05:27:46.024Z,97641.87
2018-08-22T05:30:14.533Z,97646.44
2018-08-22T05:32:43.172Z,97647.63
2018-08-22T05:35:11.832Z,97648.09
2018-08-22T05:37:40.513Z,97639.81
2018-08-22T05:40:09.032Z,97636.16
2018-08-22T05:42:37.537Z,97642.09
2018-08-22T05:45:06.646Z,97644.33
2018-08-22T05:47:35.140Z,97640.99
2018-08-22T05:50:03.700Z,97639.78
2018-08-22T05:52:32.536Z,97639.74
2018-08-22T05:55:01.125Z,97636.81
2018-08-22T05:57:29.625Z,97636.77
2018-08-22T05:59:58.137Z,97635.12
2018-08-22T06:02:26.687Z,97632.70
2018-08-22T06:04:55.200Z,97629.87
2018-08-22T06:07:23.752Z,97642.91
2018-08-22T06:09:52.252Z,97642.61
2018-08-22T06:12:20.743Z,97640.14
2018-08-22T06:14:49.299Z,97643.73
2018-08-22T06:17:17.811Z,97642.98
2018-08-22T06:19:46.393Z,97638.02
2018-08-22T06:22:14.876Z,97643.72
2018-08-22T06:24:43.415Z,97640.34
2018-08-22T06:27:12.029Z,97614.41
2018-08-22T06:29:40.495Z,97635.80
2018-08-22T06:32:10.056Z,97647.02
2018-08-22T06:34:38.534Z,97643.66
2018-08-22T06:37:07.208Z,97639.91
2018-08-22T06:39:35.726Z,97639.13
2018-08-22T06:42:04.243Z,97647.39
2018-08-22T06:44:32.788Z,97637.70
2018-08-22T06:47:02.316Z,97642.14
2018-08-22T06:49:30.823Z,97643.17
2018-08-22T06:51:59.424Z,97636.45
2018-08-22T06:54:27.910Z,97639.61
2018-08-22T06:56:56.404Z,97641.44
2018-08-22T06:59:24.899Z,97644.53
2018-08-22T07:01:53.404Z,97639.50
2018-08-22T07:04:21.906Z,97637.00
2018-08-22T07:06:50.397Z,97635.83
2018-08-22T07:09:18.957Z,97629.05
2018-08-22T07:11:47.550Z,97631.72
2018-08-22T07:14:16.044Z,97633.48
2018-08-22T07:16:44.520Z,97634.01
2018-08-22T07:19:12.978Z,97634.03
2018-08-22T07:21:41.549Z,97637.11
2018-08-22T07:24:10.054Z,97632.92
2018-08-22T07:26:38.509Z,97632.56
2018-08-22T07:29:07.014Z,97636.91
2018-08-22T07:31:35.537Z,97636.54
2018-08-22T07:34:04.055Z,97641.30
2018-08-22T07:36:32.558Z,97643.92
2018-08-22T07:39:01.029Z,97646.13
2018-08-22T07:41:29.584Z,97643.14
2018-08-22T07:43:58.083Z,97638.04
2018-08-22T07:46:26.672Z,97643.66
2018-08-22T07:48:55.231Z,97643.20
2018-08-22T07:51:23.686Z,97647.09
2018-08-22T07:53:52.164Z,97641.52
2018-08-22T07:56:20.625Z,97649.23
2018-08-22T07:58:59.087Z,97644.96
2018-08-22T08:01:27.592Z,97639.39
2018-08-22T08:03:56.139Z,97642.44
2018-08-22T08:06:24.637Z,97640.70
2018-08-22T08:08:53.128Z,97645.86
2018-08-22T08:11:21.613Z,97643.33
2018-08-22T08:13:50.081Z,97639.95
2018-08-22T08:16:18.538Z,97642.14
2018-08-22T08:18:47.096Z,97638.30
2018-08-22T08:21:15.563Z,97641.33
2018-08-22T08:23:44.090Z,97631.89
2018-08-22T08:26:12.659Z,97631.47
2018-08-22T08:28:41.049Z,97633.63
2018-08-22T08:31:09.695Z,97633.63
2018-08-22T08:33:38.171Z,97632.77
2018-08-22T08:36:06.653Z,97624.62
2018-08-22T08:38:35.127Z,97626.34
2018-08-22T08:41:03.604Z,97627.21
2018-08-22T08:43:32.959Z,97622.48
2018-08-22T08:46:01.459Z,97624.23
2018-08-22T08:48:31.676Z,97626.80
2018-08-22T08:51:00.172Z,97628.50
2018-08-22T08:53:28.845Z,97624.66
2018-08-22T08:55:57.353Z,97621.67
2018-08-22T08:58:25.818Z,97618.23
2018-08-22T09:00:54.697Z,97619.53
2018-08-22T09:03:23.184Z,97620.82
2018-08-22T09:05:52.351Z,97615.67
2018-08-22T09:08:20.817Z,97613.97
2018-08-22T09:10:49.366Z,97610.55
2018-08-22T09:13:17.854Z,97611.83
2018-08-22T09:15:46.405Z,97612.27
2018-08-22T09:18:14.875Z,97608.86
2018-08-22T09:20:43.503Z,97610.59
2018-08-22T09:23:11.985Z,97611.02
2018-08-22T09:25:40.574Z,97611.04
2018-08-22T09:28:09.232Z,97611.04
2018-08-22T09:30:38.209Z,97609.75
2018-08-22T09:33:06.683Z,97608.48
2018-08-22T09:35:35.269Z,97604.64
2018-08-22T09:38:03.701Z,97605.54
2018-08-22T09:40:32.202Z,97598.70
2018-08-22T09:43:00.715Z,97599.16
2018-08-22T09:45:29.187Z,97595.30
2018-08-22T09:47:57.682Z,97589.73
2018-08-22T09:50:26.140Z,97589.75
2018-08-22T09:52:54.615Z,97582.52
2018-08-22T09:55:23.091Z,97576.95
2018-08-22T09:57:51.574Z,97573.91
2018-08-22T10:00:25.416Z,97577.77
2018-08-22T10:02:53.910Z,97570.53
2018-08-22T10:05:22.704Z,97571.38
2018-08-22T10:07:51.203Z,97572.25
2018-08-22T10:10:19.701Z,97567.52
2018-08-22T10:12:48.255Z,97567.11
2018-08-22T10:15:16.727Z,97569.30
2018-08-22T10:17:46.051Z,97566.73
2018-08-22T10:20:14.535Z,97561.59
2018-08-22T10:22:43.031Z,97558.14
2018-08-22T10:25:11.497Z,97553.87
2018-08-22T10:27:39.958Z,97547.85
2018-08-22T10:30:08.652Z,97548.28
2018-08-22T10:32:37.188Z,97544.00
2018-08-22T10:35:06.242Z,97550.48
2018-08-22T10:37:34.717Z,97515.30
2018-08-22T10:40:03.260Z,97546.23
2018-08-22T10:42:31.727Z,97543.70
2018-08-22T10:45:00.212Z,97536.84
2018-08-22T10:47:28.697Z,97534.77
2018-08-22T10:49:57.158Z,97530.92
2018-08-22T10:52:25.636Z,97529.67
2018-08-22T10:54:54.147Z,97523.67
2018-08-22T10:57:22.615Z,97519.84
2018-08-22T10:59:51.108Z,97527.60
2018-08-22T11:02:19.573Z,97521.60
2018-08-22T11:04:48.054Z,97528.05
2018-08-22T11:07:16.822Z,97521.60
2018-08-22T11:09:45.305Z,97515.16
2018-08-22T11:12:13.803Z,97518.59
2018-08-22T11:14:42.266Z,97523.73
2018-08-22T11:17:10.829Z,97518.99
2018-08-22T11:19:39.360Z,97516.87
2018-08-22T11:22:19.036Z,97517.69
2018-08-22T11:24:58.749Z,97509.12
2018-08-22T11:27:38.390Z,97509.12
2018-08-22T11:30:18.299Z,97512.51
2018-08-22T11:32:58.118Z,97510.39
2018-08-22T11:35:25.419Z,97513.80
2018-08-22T11:37:53.917Z,97510.38
2018-08-22T11:40:22.431Z,97504.33
2018-08-22T11:42:50.932Z,97500.89
2018-08-22T11:45:19.460Z,97500.05
2018-08-22T11:47:47.960Z,97497.89
2018-08-22T11:50:16.607Z,97496.17
2018-08-22T11:52:45.137Z,97498.30
2018-08-22T11:55:13.652Z,97497.48
2018-08-22T11:57:42.214Z,97495.73
2018-08-22T12:00:10.717Z,97495.33
2018-08-22T12:02:39.229Z,97496.19
2018-08-22T12:05:08.032Z,97492.32
2018-08-22T12:07:36.546Z,97488.02
2018-08-22T12:10:05.091Z,97487.17
2018-08-22T12:12:33.626Z,97484.14
2018-08-22T12:15:02.206Z,97481.16
2018-08-22T12:17:30.675Z,97483.31
2018-08-22T12:19:59.192Z,97475.59
2018-08-22T12:22:27.671Z,97481.58
2018-08-22T12:24:56.239Z,97479.00
2018-08-22T12:27:24.775Z,97471.72
2018-08-22T12:29:53.272Z,97475.59
2018-08-22T12:32:21.750Z,97476.00
2018-08-22T12:34:50.223Z,97479.86
2018-08-22T12:37:18.709Z,97493.16
2018-08-22T12:39:47.200Z,97478.98
2018-08-22T12:42:15.747Z,97471.26
2018-08-22T12:44:44.416Z,97463.97
2018-08-22T12:47:13.124Z,97463.97
2018-08-22T12:49:42.058Z,97457.96
2018-08-22T12:52:10.548Z,97465.28
2018-08-22T12:54:39.133Z,97451.94
2018-08-22T12:57:07.612Z,97443.79
2018-08-22T12:59:36.107Z,97448.55
2018-08-22T13:02:04.693Z,97450.69
2018-08-22T13:04:33.574Z,97446.83
2018-08-22T13:07:02.018Z,97445.53
2018-08-22T13:09:30.506Z,97445.13
2018-08-22T13:11:59.058Z,97441.68
2018-08-22T13:14:27.536Z,97444.27
2018-08-22T13:16:56.118Z,97437.42
2018-08-22T13:19:24.580Z,97436.15
2018-08-22T13:21:53.053Z,97437.44
2018-08-22T13:24:21.609Z,97434.45
2018-08-22T13:26:50.090Z,97426.23
2018-08-22T13:29:18.671Z,97423.67
2018-08-22T13:31:47.187Z,97422.38
2018-08-22T13:34:15.718Z,97430.11
2018-08-22T13:36:44.212Z,97425.41
2018-08-22T13:39:12.989Z,97414.63
2018-08-22T13:41:41.440Z,97410.74
2018-08-22T13:44:10.100Z,97411.20
2018-08-22T13:46:38.588Z,97409.03
2018-08-22T13:49:07.049Z,97410.34
2018-08-22T13:51:35.522Z,97409.92
2018-08-22T13:54:04.061Z,97409.48
2018-08-22T13:56:32.579Z,97409.94
2018-08-22T13:59:01.204Z,97407.77
2018-08-22T14:01:29.693Z,97407.77
2018-08-22T14:03:58.183Z,97408.17
2018-08-22T14:06:26.830Z,97403.02
2018-08-22T14:08:55.555Z,97399.16
2018-08-22T14:11:24.072Z,97403.45
2018-08-22T14:13:52.538Z,97397.00
2018-08-22T14:16:21.026Z,97394.84
2018-08-22T14:18:49.506Z,97390.10
2018-08-22T14:21:18.230Z,97385.81
2018-08-22T14:23:46.773Z,97384.94
2018-08-22T14:26:15.260Z,97383.64
2018-08-22T14:28:43.757Z,97380.23
2018-08-22T14:31:12.232Z,97382.80
2018-08-22T14:33:40.701Z,97380.23
2018-08-22T14:36:09.198Z,97378.95
2018-08-22T14:38:37.668Z,97369.06
2018-08-22T14:41:06.138Z,97368.66
2018-08-22T14:43:34.611Z,97373.82
2018-08-22T14:46:03.110Z,97373.38
2018-08-22T14:48:31.603Z,97366.10
2018-08-22T14:51:00.116Z,97363.96
2018-08-22T14:53:28.682Z,97362.67
2018-08-22T14:55:57.206Z,97357.53
2018-08-22T14:58:25.703Z,97351.52
2018-08-22T15:00:54.266Z,97345.54
2018-08-22T15:03:24.583Z,97345.55
2018-08-22T15:05:52.791Z,97346.84
2018-08-22T15:08:21.254Z,97347.67
2018-08-22T15:10:49.902Z,97341.23
2018-08-22T15:13:18.414Z,97340.82
2018-08-22T15:15:46.880Z,97335.23
2018-08-22T15:18:15.479Z,97330.92
2018-08-22T15:20:43.899Z,97334.80
2018-08-22T15:23:12.370Z,97328.80
2018-08-22T15:25:40.920Z,97327.92
2018-08-22T15:28:09.400Z,97323.64
2018-08-22T15:30:37.886Z,97318.91
2018-08-22T15:33:06.374Z,97322.78
2018-08-22T15:35:34.835Z,97318.50
2018-08-22T15:38:03.312Z,97313.75
2018-08-22T15:40:31.823Z,97315.92
2018-08-22T15:43:00.354Z,97311.18
2018-08-22T15:45:28.827Z,97309.89
2018-08-22T15:47:57.334Z,97310.30
2018-08-22T15:50:25.811Z,97310.30
2018-08-22T15:52:54.433Z,97315.45
2018-08-22T15:55:22.861Z,97305.59
2018-08-22T15:58:04.678Z,97308.16
2018-08-22T16:00:38.617Z,97303.42
2018-08-22T16:03:08.419Z,97166.33
2018-08-22T16:05:37.870Z,97300.83
2018-08-22T16:08:06.546Z,97302.13
2018-08-22T16:10:35.015Z,97303.83
2018-08-22T16:13:03.521Z,97295.24
2018-08-22T16:15:33.604Z,97297.81
2018-08-22T16:18:06.378Z,97293.94
2018-08-22T16:20:45.646Z,97298.62
2018-08-22T16:23:14.112Z,97295.20
2018-08-22T16:25:43.427Z,97291.75
2018-08-22T16:28:11.972Z,97293.91
2018-08-22T16:30:40.567Z,97266.30
2018-08-22T16:33:09.594Z,97289.14
2018-08-22T16:35:38.055Z,97286.14
2018-08-22T16:38:11.090Z,97288.27
2018-08-22T16:40:41.363Z,97289.13
2018-08-22T16:43:09.938Z,97290.41
2018-08-22T16:45:45.766Z,97292.98
2018-08-22T16:48:19.718Z,97292.98
2018-08-22T16:50:48.781Z,97287.41
2018-08-22T16:53:17.260Z,97291.27
2018-08-22T16:55:45.731Z,97294.27
2018-08-22T16:58:14.186Z,97292.97
2018-08-22T17:00:44.172Z,97292.55
2018-08-22T17:03:12.646Z,97291.25
2018-08-22T17:05:41.138Z,97290.81
2018-08-22T17:08:09.602Z,97289.09
2018-08-22T17:10:49.414Z,97297.69
2018-08-22T17:13:25.771Z,97300.69
2018-08-22T17:15:54.407Z,97295.94
2018-08-22T17:18:22.873Z,97304.95
2018-08-22T17:20:51.646Z,97302.37
2018-08-22T17:23:20.192Z,97304.12
2018-08-22T17:25:48.797Z,97301.54
2018-08-22T17:28:23.876Z,97299.38
2018-08-22T17:30:52.451Z,97304.53
2018-08-22T17:33:21.818Z,97297.22
2018-08-22T17:35:51.599Z,97301.08
2018-08-22T17:38:20.080Z,97309.25
2018-08-22T17:40:48.562Z,97307.52
2018-08-22T17:43:17.050Z,97302.81
2018-08-22T17:45:45.542Z,97309.25
2018-08-22T17:48:14.022Z,97309.67
2018-08-22T17:50:42.495Z,97302.36
2018-08-22T17:53:10.966Z,97310.09
2018-08-22T17:55:39.453Z,97307.97
2018-08-22T17:58:07.938Z,97308.39
2018-08-22T18:00:37.800Z,97309.69
2018-08-22T18:03:06.387Z,97304.98
2018-08-22T18:05:35.904Z,97309.30
2018-08-22T18:08:06.454Z,97306.72
2018-08-22T18:10:37.191Z,97308.02
2018-08-22T18:13:16.765Z,97308.42
2018-08-22T18:15:46.019Z,97308.02
2018-08-22T18:18:14.539Z,97312.72
2018-08-22T18:20:46.394Z,97311.89
2018-08-22T18:23:15.119Z,97317.45
2018-08-22T18:25:49.021Z,97309.31
2018-08-22T18:28:17.484Z,97317.04
2018-08-22T18:30:46.320Z,97316.16
2018-08-22T18:33:14.810Z,97321.73
2018-08-22T18:35:45.048Z,97322.19
2018-08-22T18:38:13.602Z,97322.17
2018-08-22T18:40:42.061Z,97329.03
2018-08-22T18:43:10.629Z,97329.43
2018-08-22T18:46:15.472Z,97334.58
2018-08-22T18:48:43.951Z,97328.58
2018-08-22T18:51:12.515Z,97335.86
2018-08-22T18:53:41.031Z,97338.42
2018-08-22T18:56:14.975Z,97339.28
2018-08-22T18:58:43.449Z,97340.98
2018-08-22T19:01:11.995Z,97335.41
2018-08-22T19:03:40.500Z,97344.84
2018-08-22T19:06:08.958Z,97348.30
2018-08-22T19:08:40.085Z,97347.89
2018-08-22T19:11:09.858Z,97346.16
2018-08-22T19:13:38.353Z,97346.61
2018-08-22T19:16:08.696Z,97346.16
2018-08-22T19:18:37.756Z,97346.61
2018-08-22T19:21:09.034Z,97344.05
2018-08-22T19:23:38.150Z,97339.73
2018-08-22T19:26:08.149Z,97341.00
2018-08-22T19:28:59.163Z,97343.15
2018-08-22T19:31:28.047Z,97347.87
2018-08-22T19:33:56.752Z,97347.41
2018-08-22T19:36:25.239Z,97346.98
2018-08-22T19:38:54.080Z,97341.80
2018-08-22T19:41:26.504Z,97349.09
2018-08-22T19:43:56.322Z,97347.80
2018-08-22T19:46:25.718Z,97350.77
2018-08-22T19:48:54.236Z,97347.77
2018-08-22T19:51:24.233Z,97352.46
2018-08-22T19:54:01.719Z,97352.45
2018-08-22T19:56:31.282Z,97352.88
2018-08-22T19:59:00.059Z,97349.42
2018-08-22T20:01:34.918Z,97351.07
2018-08-22T20:04:03.434Z,97354.08
2018-08-22T20:06:32.989Z,97357.50
2018-08-22T20:09:01.860Z,97356.66
2018-08-22T20:11:33.633Z,97357.50
2018-08-22T20:14:03.547Z,97356.66
2018-08-22T20:16:32.593Z,97354.91
2018-08-22T20:19:02.961Z,97360.94
2018-08-22T20:21:37.599Z,97363.08
2018-08-22T20:24:09.219Z,97363.08
2018-08-22T20:26:38.398Z,97359.64
2018-08-22T20:29:07.225Z,97365.20
2018-08-22T20:31:39.249Z,97359.64
2018-08-22T20:34:15.873Z,97356.64
2018-08-22T20:36:46.272Z,97358.77
2018-08-22T20:39:16.787Z,97359.62
2018-08-22T20:41:47.060Z,97367.77
2018-08-22T20:44:18.647Z,97360.05
2018-08-22T20:46:48.543Z,97371.20
2018-08-22T20:49:19.449Z,97364.75
2018-08-22T20:51:48.799Z,97364.34
2018-08-22T20:54:21.436Z,97364.34
2018-08-22T20:56:55.100Z,97361.77
2018-08-22T20:59:24.232Z,97364.34
2018-08-22T21:02:09.359Z,97363.47
2018-08-22T21:04:37.749Z,97361.75
2018-08-22T21:07:06.925Z,97363.89
2018-08-22T21:09:36.476Z,97365.63
2018-08-22T21:12:06.271Z,97367.34
2018-08-22T21:14:36.035Z,97367.34
2018-08-22T21:17:05.889Z,97366.91
2018-08-22T21:19:35.447Z,97360.48
2018-08-22T21:22:08.778Z,97369.04
2018-08-22T21:24:37.316Z,97362.59
2018-08-22T21:27:05.798Z,97365.16
2018-08-22T21:29:34.266Z,97364.75
2018-08-22T21:32:02.730Z,97383.65
2018-08-22T21:34:31.212Z,97385.35
2018-08-22T21:36:59.682Z,97384.48
2018-08-22T21:39:28.209Z,97381.90
2018-08-22T21:41:56.791Z,97382.77
2018-08-22T21:44:25.361Z,97375.92
2018-08-22T21:47:00.096Z,97378.91
2018-08-22T21:49:28.944Z,97385.80
2018-08-22T21:51:59.582Z,97380.63
2018-08-22T21:54:28.263Z,97380.63
2018-08-22T21:56:56.760Z,97379.79
2018-08-22T21:59:25.245Z,97374.17
2018-08-22T22:01:59.459Z,97376.73
2018-08-22T22:04:33.897Z,97374.16
2018-08-22T22:07:04.894Z,97379.33
2018-08-22T22:09:34.005Z,97369.89
2018-08-22T22:12:02.999Z,97374.17
2018-08-22T22:14:34.559Z,97372.06
2018-08-22T22:17:03.708Z,97369.48
2018-08-22T22:19:34.355Z,97369.04
2018-08-22T22:22:03.853Z,97369.48
2018-08-22T22:24:32.371Z,97365.17
2018-08-22T22:27:00.938Z,97364.77
2018-08-22T22:29:32.645Z,97359.61
2018-08-22T22:32:01.489Z,97358.74
2018-08-22T22:34:30.287Z,97361.31
2018-08-22T22:36:58.801Z,97355.75
2018-08-22T22:39:36.835Z,97353.59
2018-08-22T22:42:24.632Z,97347.16
2018-08-22T22:44:54.195Z,97351.46
2018-08-22T22:47:28.691Z,97348.42
2018-08-22T22:49:57.733Z,97343.73
2018-08-22T22:52:28.731Z,97349.30
2018-08-22T22:55:01.435Z,97347.14
2018-08-22T22:57:31.935Z,97343.28
2018-08-22T23:00:01.563Z,97346.30
2018-08-22T23:02:30.591Z,97341.15
2018-08-22T23:04:59.923Z,97336.41
2018-08-22T23:07:31.219Z,97336.00
2018-08-22T23:10:03.993Z,97334.70
2018-08-22T23:12:40.471Z,97335.13
2018-08-22T23:15:11.409Z,97341.56
2018-08-22T23:17:40.397Z,97337.27
2018-08-22T23:20:28.504Z,97339.40
2018-08-22T23:22:57.224Z,97332.95
2018-08-22T23:25:26.079Z,97331.25
2018-08-22T23:27:54.687Z,97330.84
2018-08-22T23:30:27.562Z,97321.36
2018-08-22T23:32:56.056Z,97326.95
2018-08-22T23:35:28.645Z,97322.23
2018-08-22T23:37:59.276Z,97320.08
2018-08-22T23:40:28.857Z,97314.93
2018-08-22T23:42:57.345Z,97320.94
2018-08-22T23:45:25.815Z,97313.64
2018-08-22T23:47:54.304Z,97319.23
2018-08-22T23:50:22.961Z,97314.50
2018-08-22T23:52:53.828Z,97309.78
2018-08-22T23:55:23.226Z,97312.80
2018-08-22T23:57:56.613Z,97310.66
